Time;durP1;ratioP1;P1;durP2;ratioP2;P2;SDS_P1;SDS_P2;PMS_P1;PMS_P2;Temp;Humidity;BMP_temperature;BMP_pressure;BME280_temperature;BME280_humidity;BME280_pressure;Samples;Min_cycle;Max_cycle;Signal;HPM_P1;HPM_P2
2023/05/11 00:01:18;;;;;;;16.48;7.57;;;;;;;;;;6225728;28;20041;-61
2023/05/11 00:04:19;;;;;;;17.75;7.40;;;;;;;;;;6226481;28;20042;-61
2023/05/11 00:07:20;;;;;;;17.42;7.82;;;;;;;;;;6224897;28;20038;-61
2023/05/11 00:10:20;;;;;;;24.77;8.55;;;;;;;;;;6219214;28;20049;-60
2023/05/11 00:13:21;;;;;;;15.65;7.13;;;;;;;;;;6227174;28;20045;-62
2023/05/11 00:16:21;;;;;;;15.77;7.57;;;;;;;;;;6225398;28;20050;-62
2023/05/11 00:19:22;;;;;;;16.08;7.70;;;;;;;;;;6223162;28;20065;-59
2023/05/11 00:22:22;;;;;;;13.93;7.82;;;;;;;;;;6223617;28;20500;-67
2023/05/11 00:25:23;;;;;;;24.00;9.63;;;;;;;;;;6220220;28;20841;-62
2023/05/11 00:28:24;;;;;;;20.00;8.10;;;;;;;;;;6223160;28;20049;-62
2023/05/11 00:31:25;;;;;;;15.73;7.95;;;;;;;;;;6222100;28;20408;-61
2023/05/11 00:34:26;;;;;;;16.00;8.38;;;;;;;;;;6222246;28;20054;-61
2023/05/11 00:37:26;;;;;;;15.93;8.75;;;;;;;;;;6222131;28;20046;-61
2023/05/11 00:40:27;;;;;;;15.88;8.25;;;;;;;;;;6220050;28;20046;-59
2023/05/11 00:43:28;;;;;;;16.60;8.70;;;;;;;;;;6221608;28;20053;-61
2023/05/11 00:46:28;;;;;;;18.13;8.48;;;;;;;;;;6222380;28;20045;-61
2023/05/11 00:49:30;;;;;;;15.25;8.10;;;;;;;;;;6223461;28;20045;-60
2023/05/11 00:52:30;;;;;;;19.17;8.30;;;;;;;;;;6223447;28;20044;-61
2023/05/11 00:55:31;;;;;;;17.17;7.80;;;;;;;;;;6223759;28;20426;-61
2023/05/11 00:58:31;;;;;;;19.00;9.05;;;;;;;;;;6222631;28;20046;-61
2023/05/11 01:01:34;;;;;;;21.00;9.15;;;;;;;;;;6222843;28;20076;-61
2023/05/11 01:04:35;;;;;;;20.80;10.35;;;;;;;;;;6225773;28;20040;-60
2023/05/11 01:07:40;;;;;;;18.85;9.40;;;;;;;;;;6226355;28;20053;-62
2023/05/11 01:10:47;;;;;;;17.83;8.70;;;;;;;;;;6220738;28;20046;-62
2023/05/11 01:13:54;;;;;;;17.35;8.73;;;;;;;;;;6223652;28;20049;-64
2023/05/11 01:17:00;;;;;;;20.20;8.23;;;;;;;;;;6221328;28;20698;-62
2023/05/11 01:20:06;;;;;;;17.48;8.52;;;;;;;;;;6220815;28;20044;-65
2023/05/11 01:23:06;;;;;;;15.73;8.57;;;;;;;;;;6222690;28;20510;-61
2023/05/11 01:26:46;;;;;;;17.85;8.15;;;;;;;;;;6223847;28;20060;-65
2023/05/11 01:30:01;;;;;;;18.17;8.30;;;;;;;;;;6222035;28;20072;-61
2023/05/11 01:33:08;;;;;;;17.75;7.85;;;;;;;;;;6223456;28;20046;-62
2023/05/11 01:36:11;;;;;;;17.30;8.95;;;;;;;;;;6221663;28;20524;-61
2023/05/11 01:39:14;;;;;;;20.52;8.98;;;;;;;;;;6223307;28;20056;-60
2023/05/11 01:42:19;;;;;;;18.83;8.75;;;;;;;;;;6223470;28;20056;-61
2023/05/11 01:45:21;;;;;;;17.65;8.82;;;;;;;;;;6222163;28;20038;-61
2023/05/11 01:48:26;;;;;;;17.00;8.57;;;;;;;;;;6220759;28;20488;-61
2023/05/11 01:51:31;;;;;;;17.35;7.95;;;;;;;;;;6221866;28;20057;-62
2023/05/11 01:54:33;;;;;;;18.50;9.18;;;;;;;;;;6221743;28;20075;-61
2023/05/11 01:57:36;;;;;;;17.73;8.13;;;;;;;;;;6224837;28;20133;-60
2023/05/11 02:00:37;;;;;;;16.30;8.65;;;;;;;;;;6221089;28;20061;-59
2023/05/11 02:03:41;;;;;;;19.05;9.40;;;;;;;;;;6220565;28;20049;-61
2023/05/11 02:06:43;;;;;;;17.10;8.80;;;;;;;;;;6221798;28;20046;-60
2023/05/11 02:09:44;;;;;;;;;;;;;;;;;;6226455;28;20149;-60
2023/05/11 02:12:51;;;;;;;17.25;9.30;;;;;;;;;;6222938;28;20379;-61
2023/05/11 02:15:55;;;;;;;20.80;9.20;;;;;;;;;;6220786;28;20045;-61
2023/05/11 02:18:57;;;;;;;18.70;8.88;;;;;;;;;;6222839;28;20065;-61
2023/05/11 02:21:59;;;;;;;19.88;8.63;;;;;;;;;;6221397;28;20049;-60
2023/05/11 02:25:00;;;;;;;18.63;8.75;;;;;;;;;;6217783;28;20077;-61
2023/05/11 02:28:01;;;;;;;18.92;9.38;;;;;;;;;;6220590;28;20039;-61
2023/05/11 02:31:08;;;;;;;24.20;9.50;;;;;;;;;;6222649;28;20455;-61
2023/05/11 02:34:23;;;;;;;23.42;10.52;;;;;;;;;;6219841;28;20045;-60
2023/05/11 02:37:25;;;;;;;17.83;9.10;;;;;;;;;;6220489;28;20057;-60
2023/05/11 02:40:32;;;;;;;18.50;9.48;;;;;;;;;;6219535;28;20054;-60
2023/05/11 02:43:39;;;;;;;17.27;9.55;;;;;;;;;;6221788;28;20073;-61
2023/05/11 02:46:41;;;;;;;21.08;9.63;;;;;;;;;;6225448;28;20049;-60
2023/05/11 02:49:44;;;;;;;18.67;9.40;;;;;;;;;;6223076;28;20131;-60
2023/05/11 02:52:47;;;;;;;24.38;11.77;;;;;;;;;;6222575;28;20076;-60
2023/05/11 02:55:49;;;;;;;22.40;11.50;;;;;;;;;;6220168;28;20563;-61
2023/05/11 02:58:50;;;;;;;22.20;11.40;;;;;;;;;;6218792;28;20076;-61
2023/05/11 03:01:51;;;;;;;27.58;10.90;;;;;;;;;;6220742;28;20045;-61
2023/05/11 03:04:52;;;;;;;19.15;9.38;;;;;;;;;;6221452;28;20046;-61
2023/05/11 03:07:56;;;;;;;23.05;10.73;;;;;;;;;;6222102;28;20049;-60
2023/05/11 03:10:57;;;;;;;20.88;11.05;;;;;;;;;;6220211;28;20045;-61
2023/05/11 03:14:00;;;;;;;25.60;11.20;;;;;;;;;;6219930;28;20045;-62
2023/05/11 03:17:02;;;;;;;20.10;9.57;;;;;;;;;;6219546;28;20060;-61
2023/05/11 03:20:03;;;;;;;22.88;9.63;;;;;;;;;;6222774;28;20120;-60
2023/05/11 03:23:05;;;;;;;31.10;11.10;;;;;;;;;;6225791;28;20115;-59
2023/05/11 03:26:06;;;;;;;18.90;11.07;;;;;;;;;;6225772;28;20049;-60
2023/05/11 03:29:08;;;;;;;21.00;10.05;;;;;;;;;;6224456;28;20160;-60
2023/05/11 03:32:09;;;;;;;24.88;11.50;;;;;;;;;;6225609;28;20045;-60
2023/05/11 03:35:10;;;;;;;23.75;10.20;;;;;;;;;;6226492;28;20037;-60
2023/05/11 03:38:11;;;;;;;21.13;10.65;;;;;;;;;;6227917;28;20112;-61
2023/05/11 03:41:15;;;;;;;25.60;11.60;;;;;;;;;;6225773;28;20092;-60
2023/05/11 03:44:19;;;;;;;21.33;9.98;;;;;;;;;;6224698;28;20129;-59
2023/05/11 03:47:21;;;;;;;24.25;10.75;;;;;;;;;;6223322;28;20050;-61
2023/05/11 03:50:22;;;;;;;21.33;10.63;;;;;;;;;;6223915;28;20040;-60
2023/05/11 03:53:23;;;;;;;18.98;9.98;;;;;;;;;;6224430;28;20978;-60
2023/05/11 03:56:23;;;;;;;18.38;9.43;;;;;;;;;;6225954;28;20045;-61
2023/05/11 03:59:25;;;;;;;17.85;9.65;;;;;;;;;;6223330;28;20049;-60
2023/05/11 04:02:25;;;;;;;22.05;9.70;;;;;;;;;;6226144;28;20050;-60
2023/05/11 04:05:26;;;;;;;28.05;10.95;;;;;;;;;;6225415;28;20073;-59
2023/05/11 04:08:27;;;;;;;20.10;10.27;;;;;;;;;;6222456;28;20049;-61
2023/05/11 04:11:29;;;;;;;25.13;11.63;;;;;;;;;;6226228;28;20062;-60
2023/05/11 04:14:29;;;;;;;20.33;10.57;;;;;;;;;;6232071;28;20038;-61
2023/05/11 04:17:30;;;;;;;25.13;11.23;;;;;;;;;;6234676;28;20468;-61
2023/05/11 04:20:30;;;;;;;20.00;10.30;;;;;;;;;;6237334;28;20065;-60
2023/05/11 04:23:31;;;;;;;22.05;10.27;;;;;;;;;;6238507;28;20480;-62
2023/05/11 04:26:32;;;;;;;22.15;9.40;;;;;;;;;;6241321;28;20108;-60
2023/05/11 04:29:32;;;;;;;19.65;9.68;;;;;;;;;;6221330;28;20096;-60
2023/05/11 04:32:33;;;;;;;18.92;9.13;;;;;;;;;;6219540;28;20058;-61
2023/05/11 04:35:38;;;;;;;20.48;9.60;;;;;;;;;;6219729;28;20052;-62
2023/05/11 04:38:38;;;;;;;20.83;9.63;;;;;;;;;;6218541;28;20050;-60
2023/05/11 04:41:39;;;;;;;21.73;11.43;;;;;;;;;;6220420;28;20052;-61
2023/05/11 04:44:40;;;;;;;19.23;9.82;;;;;;;;;;6220669;28;20045;-61
2023/05/11 04:47:40;;;;;;;20.13;10.13;;;;;;;;;;6220072;28;20041;-60
2023/05/11 04:50:42;;;;;;;24.80;10.25;;;;;;;;;;6218546;28;20067;-61
2023/05/11 04:53:42;;;;;;;21.90;10.18;;;;;;;;;;6222880;28;20496;-61
2023/05/11 04:56:43;;;;;;;19.25;9.32;;;;;;;;;;6217490;28;20060;-60
2023/05/11 04:59:44;;;;;;;22.58;10.95;;;;;;;;;;6218702;28;20052;-61
2023/05/11 05:02:44;;;;;;;21.95;9.90;;;;;;;;;;6218997;28;20349;-61
2023/05/11 05:05:45;;;;;;;21.88;10.43;;;;;;;;;;6219274;28;20077;-61
2023/05/11 05:08:45;;;;;;;34.28;15.55;;;;;;;;;;6220218;28;20519;-60
2023/05/11 05:11:46;;;;;;;26.48;12.65;;;;;;;;;;6221440;28;20481;-60
2023/05/11 05:14:46;;;;;;;21.83;12.38;;;;;;;;;;6217263;28;20042;-59
2023/05/11 05:17:47;;;;;;;21.42;11.18;;;;;;;;;;6216035;28;20476;-61
2023/05/11 05:20:47;;;;;;;22.60;11.32;;;;;;;;;;6215485;28;20104;-61
2023/05/11 05:23:48;;;;;;;23.85;11.73;;;;;;;;;;6218710;28;20038;-61
2023/05/11 05:26:48;;;;;;;34.05;16.30;;;;;;;;;;6217586;28;20057;-60
2023/05/11 05:29:49;;;;;;;17.67;9.88;;;;;;;;;;6219574;28;20045;-60
2023/05/11 05:32:50;;;;;;;18.98;9.82;;;;;;;;;;6219694;28;20049;-60
2023/05/11 05:35:50;;;;;;;20.60;9.90;;;;;;;;;;6218434;28;20037;-61
2023/05/11 05:38:51;;;;;;;16.67;9.10;;;;;;;;;;6217197;28;20504;-60
2023/05/11 05:41:51;;;;;;;20.95;10.10;;;;;;;;;;6220508;28;20046;-61
2023/05/11 05:44:52;;;;;;;18.27;8.80;;;;;;;;;;6218719;28;20046;-61
2023/05/11 05:47:53;;;;;;;20.80;9.02;;;;;;;;;;6217480;28;20133;-61
2023/05/11 05:50:53;;;;;;;19.48;8.35;;;;;;;;;;6219457;28;20455;-60
2023/05/11 05:53:54;;;;;;;18.00;8.52;;;;;;;;;;6218451;28;20050;-61
2023/05/11 05:56:55;;;;;;;16.52;8.48;;;;;;;;;;6216821;28;20431;-60
2023/05/11 05:59:55;;;;;;;15.52;7.90;;;;;;;;;;6217681;28;20046;-60
2023/05/11 06:02:56;;;;;;;16.00;9.18;;;;;;;;;;6219929;28;20401;-61
2023/05/11 06:05:57;;;;;;;20.23;9.23;;;;;;;;;;6218229;28;20045;-60
2023/05/11 06:08:57;;;;;;;20.42;7.90;;;;;;;;;;6219326;28;20053;-61
2023/05/11 06:11:58;;;;;;;16.05;7.95;;;;;;;;;;6218561;28;20034;-60
2023/05/11 06:14:58;;;;;;;15.43;7.90;;;;;;;;;;6218858;28;20038;-59
2023/05/11 06:17:59;;;;;;;18.48;8.20;;;;;;;;;;6218027;28;20505;-62
2023/05/11 06:20:59;;;;;;;14.95;7.68;;;;;;;;;;6220489;28;20052;-60
2023/05/11 06:24:00;;;;;;;18.63;8.93;;;;;;;;;;6219048;28;20460;-62
2023/05/11 06:27:01;;;;;;;17.88;8.43;;;;;;;;;;6218244;28;20054;-60
2023/05/11 06:30:02;;;;;;;20.57;7.57;;;;;;;;;;6219886;28;20041;-67
2023/05/11 06:33:03;;;;;;;14.00;7.75;;;;;;;;;;6227922;28;20554;-60
2023/05/11 06:36:05;;;;;;;18.48;8.40;;;;;;;;;;6216105;28;20077;-60
2023/05/11 06:39:06;;;;;;;;;;;;;;;;;;6219712;28;20041;-58
2023/05/11 06:42:07;;;;;;;20.90;8.50;;;;;;;;;;6219665;28;19925;-61
2023/05/11 06:45:08;;;;;;;15.20;8.00;;;;;;;;;;6218136;28;20513;-60
2023/05/11 06:48:08;;;;;;;15.95;7.82;;;;;;;;;;6217818;28;20080;-61
2023/05/11 06:51:10;;;;;;;22.73;10.98;;;;;;;;;;6218191;28;20041;-61
2023/05/11 06:54:11;;;;;;;15.60;7.63;;;;;;;;;;6220526;28;20038;-60
2023/05/11 06:57:11;;;;;;;13.85;7.22;;;;;;;;;;6222212;28;20930;-61
2023/05/11 07:00:13;;;;;;;16.30;6.70;;;;;;;;;;6221369;28;20065;-60
2023/05/11 07:03:13;;;;;;;17.80;6.95;;;;;;;;;;6221378;28;20117;-60
2023/05/11 07:06:14;;;;;;;12.90;6.40;;;;;;;;;;6224336;28;20045;-60
2023/05/11 07:09:15;;;;;;;14.30;6.53;;;;;;;;;;6222983;28;20045;-61
2023/05/11 07:12:16;;;;;;;12.60;6.22;;;;;;;;;;6221772;28;20554;-60
2023/05/11 07:15:16;;;;;;;13.55;5.78;;;;;;;;;;6220202;28;20464;-60
2023/05/11 07:18:17;;;;;;;14.05;6.50;;;;;;;;;;6221987;28;20041;-61
2023/05/11 07:21:18;;;;;;;12.40;6.78;;;;;;;;;;6222037;28;20049;-60
2023/05/11 07:24:18;;;;;;;12.32;6.53;;;;;;;;;;6219533;28;20057;-61
2023/05/11 07:27:19;;;;;;;14.35;6.25;;;;;;;;;;6220558;28;20404;-61
2023/05/11 07:30:20;;;;;;;18.70;6.57;;;;;;;;;;6224111;28;20038;-60
2023/05/11 07:33:20;;;;;;;11.05;5.40;;;;;;;;;;6222163;28;20504;-60
2023/05/11 07:36:21;;;;;;;13.73;6.45;;;;;;;;;;6221445;28;20144;-60
2023/05/11 07:39:21;;;;;;;11.48;5.80;;;;;;;;;;6222290;28;20160;-60
2023/05/11 07:42:22;;;;;;;15.93;5.72;;;;;;;;;;6220488;28;20085;-60
2023/05/11 07:45:22;;;;;;;14.02;5.60;;;;;;;;;;6218051;28;20511;-59
2023/05/11 07:48:23;;;;;;;10.23;6.05;;;;;;;;;;6222416;28;20103;-61
2023/05/11 07:51:24;;;;;;;9.98;5.40;;;;;;;;;;6220946;28;20046;-61
2023/05/11 07:54:25;;;;;;;9.38;5.00;;;;;;;;;;6220398;28;20072;-63
2023/05/11 07:57:26;;;;;;;11.02;5.55;;;;;;;;;;6220155;28;20131;-61
2023/05/11 08:00:26;;;;;;;9.33;5.07;;;;;;;;;;6222021;28;20501;-60
2023/05/11 08:03:27;;;;;;;12.98;5.07;;;;;;;;;;6220755;28;20310;-60
2023/05/11 08:06:28;;;;;;;9.55;5.00;;;;;;;;;;6219169;28;20441;-62
2023/05/11 08:09:29;;;;;;;13.63;5.65;;;;;;;;;;6221195;28;20033;-60
2023/05/11 08:12:29;;;;;;;7.65;4.25;;;;;;;;;;6222580;28;20045;-61
2023/05/11 08:15:30;;;;;;;11.35;4.45;;;;;;;;;;6222204;28;20054;-61
2023/05/11 08:18:30;;;;;;;12.07;4.70;;;;;;;;;;6221346;28;20085;-61
2023/05/11 08:21:31;;;;;;;9.32;4.35;;;;;;;;;;6223071;28;20049;-60
2023/05/11 08:24:32;;;;;;;7.40;4.32;;;;;;;;;;6218311;28;20046;-61
2023/05/11 08:27:33;;;;;;;7.35;4.50;;;;;;;;;;6217011;28;20049;-61
2023/05/11 08:30:33;;;;;;;7.30;4.20;;;;;;;;;;6219939;28;20041;-61
2023/05/11 08:33:34;;;;;;;8.30;3.72;;;;;;;;;;6217862;28;20553;-60
2023/05/11 08:36:34;;;;;;;6.50;3.55;;;;;;;;;;6218031;28;20046;-60
2023/05/11 08:39:36;;;;;;;6.30;3.47;;;;;;;;;;6217999;28;20054;-59
2023/05/11 08:42:39;;;;;;;9.63;4.10;;;;;;;;;;6217217;28;20046;-60
2023/05/11 08:45:43;;;;;;;7.25;3.70;;;;;;;;;;6216978;28;20053;-61
2023/05/11 08:48:43;;;;;;;7.22;3.92;;;;;;;;;;6217972;28;20052;-60
2023/05/11 08:51:45;;;;;;;7.60;3.90;;;;;;;;;;6222142;28;20037;-61
2023/05/11 08:54:46;;;;;;;8.88;3.80;;;;;;;;;;6217774;28;20053;-61
2023/05/11 08:57:47;;;;;;;7.77;4.03;;;;;;;;;;6219508;28;20046;-60
2023/05/11 09:00:49;;;;;;;8.15;4.10;;;;;;;;;;6220514;28;20421;-60
2023/05/11 09:03:51;;;;;;;6.72;4.50;;;;;;;;;;6217466;28;20485;-61
2023/05/11 09:06:52;;;;;;;7.30;3.55;;;;;;;;;;6219876;28;20042;-61
2023/05/11 09:09:53;;;;;;;6.75;3.28;;;;;;;;;;6220596;28;20045;-61
2023/05/11 09:12:54;;;;;;;5.28;3.35;;;;;;;;;;6222001;28;20053;-61
2023/05/11 09:15:54;;;;;;;6.10;3.63;;;;;;;;;;6216877;28;20052;-62
2023/05/11 09:18:59;;;;;;;7.40;3.70;;;;;;;;;;6219400;28;20536;-60
2023/05/11 09:22:00;;;;;;;7.68;3.78;;;;;;;;;;6218490;28;20139;-61
2023/05/11 09:25:01;;;;;;;6.25;3.90;;;;;;;;;;6216422;28;20033;-62
2023/05/11 09:28:02;;;;;;;6.07;3.50;;;;;;;;;;6220158;28;20030;-61
2023/05/11 09:31:03;;;;;;;7.40;3.90;;;;;;;;;;6218352;28;20380;-61
2023/05/11 09:34:22;;;;;;;7.53;4.20;;;;;;;;;;6219125;28;20052;-61
2023/05/11 09:37:23;;;;;;;6.28;3.70;;;;;;;;;;6215827;28;20061;-60
2023/05/11 09:40:25;;;;;;;7.03;3.78;;;;;;;;;;6216558;28;20640;-61
2023/05/11 09:43:27;;;;;;;6.38;3.05;;;;;;;;;;6217072;28;20057;-60
2023/05/11 09:46:28;;;;;;;5.85;3.53;;;;;;;;;;6220203;28;20096;-61
2023/05/11 09:49:28;;;;;;;4.15;2.63;;;;;;;;;;6219230;28;20046;-60
2023/05/11 09:52:29;;;;;;;4.80;3.05;;;;;;;;;;6221368;28;20516;-60
2023/05/11 09:55:30;;;;;;;7.97;3.30;;;;;;;;;;6217076;28;20049;-60
2023/05/11 09:58:54;;;;;;;6.23;3.43;;;;;;;;;;6217708;28;20103;-61
2023/05/11 10:01:55;;;;;;;5.88;3.20;;;;;;;;;;6218896;28;20046;-60
2023/05/11 10:04:58;;;;;;;5.83;2.90;;;;;;;;;;6220473;28;20060;-61
2023/05/11 10:08:01;;;;;;;6.43;3.10;;;;;;;;;;6216510;28;20175;-61
2023/05/11 10:11:04;;;;;;;6.43;2.80;;;;;;;;;;6220299;28;20046;-60
2023/05/11 10:14:05;;;;;;;5.80;2.78;;;;;;;;;;6214992;28;20511;-60
2023/05/11 10:17:06;;;;;;;6.85;2.78;;;;;;;;;;6217551;28;20045;-60
2023/05/11 10:20:07;;;;;;;7.90;3.43;;;;;;;;;;6217978;28;20536;-60
2023/05/11 10:23:09;;;;;;;4.35;2.60;;;;;;;;;;6219085;28;20497;-59
2023/05/11 10:26:10;;;;;;;;;;;;;;;;;;6218929;28;20037;-60
2023/05/11 10:29:12;;;;;;;5.22;3.05;;;;;;;;;;6215190;28;19929;-60
2023/05/11 10:32:15;;;;;;;5.55;3.33;;;;;;;;;;6217826;28;20041;-60
2023/05/11 10:35:17;;;;;;;5.15;2.30;;;;;;;;;;6215902;28;20042;-60
2023/05/11 10:38:20;;;;;;;6.43;2.90;;;;;;;;;;6216921;28;20049;-60
2023/05/11 10:41:21;;;;;;;8.00;3.50;;;;;;;;;;6216041;28;20046;-59
2023/05/11 10:44:57;;;;;;;8.27;2.93;;;;;;;;;;6218699;28;20285;-61
2023/05/11 10:48:06;;;;;;;5.18;2.30;;;;;;;;;;6220073;28;20048;-60
2023/05/11 10:51:32;;;;;;;7.60;2.78;;;;;;;;;;6217138;28;20046;-60
2023/05/11 10:54:52;;;;;;;7.13;2.70;;;;;;;;;;6217534;28;20030;-59
2023/05/11 10:57:52;;;;;;;4.28;2.70;;;;;;;;;;6218167;28;20046;-60
2023/05/11 11:01:14;;;;;;;7.40;2.80;;;;;;;;;;6218870;28;20034;-59
2023/05/11 11:04:16;;;;;;;4.97;2.53;;;;;;;;;;6216269;28;20462;-59
2023/05/11 11:07:18;;;;;;;7.47;3.85;;;;;;;;;;6220110;28;20048;-63
2023/05/11 11:10:39;;;;;;;6.90;3.55;;;;;;;;;;6218301;28;20057;-60
2023/05/11 11:13:56;;;;;;;7.28;3.90;;;;;;;;;;6215812;28;20038;-60
2023/05/11 11:17:15;;;;;;;7.78;3.08;;;;;;;;;;6217437;28;20096;-60
2023/05/11 11:20:45;;;;;;;6.60;3.20;;;;;;;;;;6213293;28;20038;-66
2023/05/11 11:23:50;;;;;;;7.13;2.97;;;;;;;;;;6214594;28;20073;-60
2023/05/11 11:26:51;;;;;;;6.13;3.40;;;;;;;;;;6217746;28;20152;-60
2023/05/11 11:30:20;;;;;;;5.23;2.90;;;;;;;;;;6215840;28;20096;-60
2023/05/11 11:33:21;;;;;;;7.05;3.50;;;;;;;;;;6216938;28;20046;-60
2023/05/11 11:37:05;;;;;;;5.60;3.10;;;;;;;;;;6221222;28;20060;-60
2023/05/11 11:40:06;;;;;;;6.68;3.30;;;;;;;;;;6220771;28;20300;-62
2023/05/11 11:43:17;;;;;;;7.38;3.00;;;;;;;;;;6219748;28;20041;-60
2023/05/11 11:46:26;;;;;;;8.05;3.17;;;;;;;;;;6220400;28;20464;-60
2023/05/11 11:49:27;;;;;;;6.32;3.50;;;;;;;;;;6220964;28;20057;-60
2023/05/11 11:52:28;;;;;;;6.07;3.30;;;;;;;;;;6220317;28;20188;-60
2023/05/11 11:55:48;;;;;;;10.67;3.17;;;;;;;;;;6211803;28;20049;-59
2023/05/11 11:58:49;;;;;;;11.05;3.65;;;;;;;;;;6214094;28;20125;-60
2023/05/11 12:01:50;;;;;;;8.13;3.30;;;;;;;;;;6215574;28;20041;-60
2023/05/11 12:04:56;;;;;;;12.63;5.40;;;;;;;;;;6210511;28;20049;-60
2023/05/11 12:08:04;;;;;;;10.95;3.60;;;;;;;;;;6215947;28;20060;-60
2023/05/11 12:11:06;;;;;;;6.85;3.40;;;;;;;;;;6217966;28;20052;-60
2023/05/11 12:14:08;;;;;;;6.97;3.45;;;;;;;;;;6213767;28;20042;-60
2023/05/11 12:17:14;;;;;;;5.28;2.70;;;;;;;;;;6215623;28;20552;-60
2023/05/11 12:20:16;;;;;;;9.85;3.85;;;;;;;;;;6214893;28;20433;-60
2023/05/11 12:23:18;;;;;;;7.97;3.80;;;;;;;;;;6212745;28;20053;-62
2023/05/11 12:26:20;;;;;;;8.57;3.60;;;;;;;;;;6214203;28;20571;-60
2023/05/11 12:29:21;;;;;;;6.78;3.38;;;;;;;;;;6212495;28;20125;-60
2023/05/11 12:32:28;;;;;;;6.13;3.53;;;;;;;;;;6212312;28;20053;-61
2023/05/11 12:35:31;;;;;;;8.68;3.80;;;;;;;;;;6212017;28;20049;-63
2023/05/11 12:38:31;;;;;;;6.00;3.65;;;;;;;;;;6218853;28;20164;-60
2023/05/11 12:41:32;;;;;;;5.60;3.50;;;;;;;;;;6218647;28;20050;-61
2023/05/11 12:44:33;;;;;;;6.40;3.17;;;;;;;;;;6210083;28;20045;-60
2023/05/11 12:47:34;;;;;;;7.63;3.83;;;;;;;;;;6214813;28;20609;-59
2023/05/11 12:50:42;;;;;;;7.57;4.10;;;;;;;;;;6211611;28;20865;-61
2023/05/11 12:53:42;;;;;;;6.75;3.40;;;;;;;;;;6211920;28;20044;-62
2023/05/11 12:56:49;;;;;;;7.17;3.07;;;;;;;;;;6211993;28;20060;-60
2023/05/11 13:00:09;;;;;;;9.15;3.70;;;;;;;;;;6217247;28;20053;-65
2023/05/11 13:03:09;;;;;;;8.23;3.70;;;;;;;;;;6214862;28;20053;-60
2023/05/11 13:06:12;;;;;;;7.17;3.63;;;;;;;;;;6215642;28;20044;-60
2023/05/11 13:09:23;;;;;;;7.18;3.45;;;;;;;;;;6215609;28;20439;-62
2023/05/11 13:12:25;;;;;;;6.20;3.00;;;;;;;;;;6216956;28;20058;-60
2023/05/11 13:15:27;;;;;;;7.27;3.30;;;;;;;;;;6212104;28;20407;-60
2023/05/11 13:18:28;;;;;;;6.50;3.15;;;;;;;;;;6214654;28;21038;-60
2023/05/11 13:21:29;;;;;;;7.57;3.13;;;;;;;;;;6214912;28;20045;-60
2023/05/11 13:24:30;;;;;;;;;;;;;;;;;;6213728;28;20049;-62
2023/05/11 13:27:30;;;;;;;7.57;3.10;;;;;;;;;;6215411;28;20358;-60
2023/05/11 13:30:31;;;;;;;8.13;3.33;;;;;;;;;;6210525;28;20056;-62
2023/05/11 13:33:32;;;;;;;5.80;3.10;;;;;;;;;;6211935;28;20103;-60
2023/05/11 13:36:32;;;;;;;5.77;2.70;;;;;;;;;;6213491;28;20507;-62
2023/05/11 13:39:33;;;;;;;10.30;3.00;;;;;;;;;;6211740;28;20050;-61
2023/05/11 13:42:34;;;;;;;7.10;3.27;;;;;;;;;;6213034;28;20057;-60
2023/05/11 13:45:35;;;;;;;7.43;3.00;;;;;;;;;;6211975;28;20182;-60
2023/05/11 13:48:36;;;;;;;5.75;3.10;;;;;;;;;;6211508;28;20051;-60
2023/05/11 13:51:36;;;;;;;5.70;2.83;;;;;;;;;;6213534;28;20041;-60
2023/05/11 13:54:37;;;;;;;7.73;2.70;;;;;;;;;;6211675;28;20176;-60
2023/05/11 13:57:37;;;;;;;5.00;3.20;;;;;;;;;;6214175;28;22072;-60
2023/05/11 14:00:39;;;;;;;7.50;3.17;;;;;;;;;;6214729;28;21117;-60
2023/05/11 14:03:39;;;;;;;10.50;3.53;;;;;;;;;;6211531;28;20057;-63
2023/05/11 14:06:41;;;;;;;6.03;3.00;;;;;;;;;;6210978;28;20048;-60
2023/05/11 14:09:46;;;;;;;;;;;;;;;;;;6211008;28;20046;-62
2023/05/11 14:12:47;;;;;;;6.47;2.80;;;;;;;;;;6215614;28;19929;-60
2023/05/11 14:15:48;;;;;;;6.13;2.80;;;;;;;;;;6215317;28;20060;-60
2023/05/11 14:18:49;;;;;;;5.80;2.92;;;;;;;;;;6214896;28;20048;-60
2023/05/11 14:21:49;;;;;;;7.73;2.77;;;;;;;;;;6216496;28;20049;-60
2023/05/11 14:24:50;;;;;;;4.30;2.83;;;;;;;;;;6210381;28;20172;-62
2023/05/11 14:27:53;;;;;;;5.83;3.10;;;;;;;;;;6215250;28;20052;-59
2023/05/11 14:30:54;;;;;;;5.15;3.00;;;;;;;;;;6210801;28;20139;-60
2023/05/11 14:33:55;;;;;;;7.93;3.67;;;;;;;;;;6214500;28;20053;-60
2023/05/11 14:36:56;;;;;;;7.72;3.55;;;;;;;;;;6212517;28;20446;-60
2023/05/11 14:39:56;;;;;;;7.63;3.80;;;;;;;;;;6216375;28;20045;-59
2023/05/11 14:42:57;;;;;;;7.63;3.30;;;;;;;;;;6213187;28;20050;-60
2023/05/11 14:45:58;;;;;;;7.77;3.37;;;;;;;;;;6214381;28;20053;-59
2023/05/11 14:48:58;;;;;;;6.63;3.10;;;;;;;;;;6210703;28;20846;-63
2023/05/11 14:51:59;;;;;;;6.83;3.13;;;;;;;;;;6214139;28;20488;-60
2023/05/11 14:55:00;;;;;;;7.40;4.67;;;;;;;;;;6210974;28;20044;-60
2023/05/11 14:58:02;;;;;;;11.67;5.20;;;;;;;;;;6231343;28;20041;-61
2023/05/11 15:01:03;;;;;;;7.38;3.17;;;;;;;;;;6239716;28;20522;-64
2023/05/11 15:04:04;;;;;;;9.43;3.33;;;;;;;;;;6227216;28;20045;-61
2023/05/11 15:07:05;;;;;;;7.63;2.70;;;;;;;;;;6216859;28;20176;-60
2023/05/11 15:10:06;;;;;;;6.97;3.00;;;;;;;;;;6214170;28;20045;-60
2023/05/11 15:13:08;;;;;;;;;;;;;;;;;;6216359;28;20038;-60
2023/05/11 15:16:09;;;;;;;;;;;;;;;;;;6223232;28;19921;-60
2023/05/11 15:19:09;;;;;;;6.95;2.70;;;;;;;;;;6221647;28;19943;-60
2023/05/11 15:22:10;;;;;;;5.27;3.23;;;;;;;;;;6223177;28;20033;-60
2023/05/11 15:25:11;;;;;;;6.67;3.30;;;;;;;;;;6219912;28;20535;-60
2023/05/11 15:28:11;;;;;;;8.70;3.20;;;;;;;;;;6223700;28;20037;-60
2023/05/11 15:31:12;;;;;;;8.30;2.83;;;;;;;;;;6221487;28;20713;-63
2023/05/11 15:34:14;;;;;;;6.80;3.00;;;;;;;;;;6222046;28;20057;-60
2023/05/11 15:37:14;;;;;;;6.90;2.95;;;;;;;;;;6224175;28;20666;-60
2023/05/11 15:40:15;;;;;;;6.00;3.00;;;;;;;;;;6222780;28;20051;-60
2023/05/11 15:43:16;;;;;;;16.07;4.73;;;;;;;;;;6217274;28;20038;-59
2023/05/11 15:46:16;;;;;;;7.83;3.20;;;;;;;;;;6216176;28;20046;-60
2023/05/11 15:49:18;;;;;;;9.37;4.37;;;;;;;;;;6209115;28;20046;-60
2023/05/11 15:52:18;;;;;;;6.50;3.47;;;;;;;;;;6215333;28;20054;-60
2023/05/11 15:55:19;;;;;;;7.43;3.10;;;;;;;;;;6216649;28;20053;-59
2023/05/11 15:58:21;;;;;;;8.13;4.10;;;;;;;;;;6211009;28;20605;-60
2023/05/11 16:01:22;;;;;;;8.75;3.95;;;;;;;;;;6216178;28;20037;-60
2023/05/11 16:04:22;;;;;;;12.83;4.87;;;;;;;;;;6216840;28;20072;-60
2023/05/11 16:07:23;;;;;;;5.78;3.40;;;;;;;;;;6210951;28;20848;-60
2023/05/11 16:10:24;;;;;;;18.73;4.30;;;;;;;;;;6213464;28;20053;-61
2023/05/11 16:13:25;;;;;;;7.13;3.20;;;;;;;;;;6216178;28;20041;-61
2023/05/11 16:16:25;;;;;;;7.27;3.70;;;;;;;;;;6216727;28;20135;-59
2023/05/11 16:19:27;;;;;;;6.00;3.30;;;;;;;;;;6214465;28;20061;-60
2023/05/11 16:22:27;;;;;;;5.37;3.10;;;;;;;;;;6216012;28;20072;-60
2023/05/11 16:25:28;;;;;;;15.00;4.17;;;;;;;;;;6215866;28;20054;-60
2023/05/11 16:28:28;;;;;;;8.27;3.60;;;;;;;;;;6210084;28;20041;-62
2023/05/11 16:31:29;;;;;;;8.23;3.17;;;;;;;;;;6215128;28;20753;-61
2023/05/11 16:34:30;;;;;;;6.20;3.10;;;;;;;;;;6215922;28;20053;-67
2023/05/11 16:37:30;;;;;;;7.27;3.17;;;;;;;;;;6212726;28;20054;-64
2023/05/11 16:40:31;;;;;;;7.40;3.47;;;;;;;;;;6214680;28;20069;-62
2023/05/11 16:43:32;;;;;;;9.77;4.53;;;;;;;;;;6213642;28;20176;-61
2023/05/11 16:46:33;;;;;;;7.50;3.33;;;;;;;;;;6215662;28;20057;-61
2023/05/11 16:49:33;;;;;;;7.60;3.10;;;;;;;;;;6213120;28;20045;-60
2023/05/11 16:52:34;;;;;;;8.53;3.50;;;;;;;;;;6214899;28;20492;-61
2023/05/11 16:55:34;;;;;;;7.70;3.87;;;;;;;;;;6212294;28;20053;-61
2023/05/11 16:58:35;;;;;;;10.93;4.67;;;;;;;;;;6212780;28;20057;-61
2023/05/11 17:01:36;;;;;;;8.27;3.90;;;;;;;;;;6224798;28;21066;-63
2023/05/11 17:04:36;;;;;;;10.33;4.03;;;;;;;;;;6220721;28;20056;-62
2023/05/11 17:07:37;;;;;;;7.93;3.87;;;;;;;;;;6221025;28;20070;-61
2023/05/11 17:10:38;;;;;;;7.73;3.90;;;;;;;;;;6218180;28;20103;-57
2023/05/11 17:13:39;;;;;;;7.53;4.00;;;;;;;;;;6215776;28;20493;-59
2023/05/11 17:16:39;;;;;;;7.77;3.90;;;;;;;;;;6212937;28;20049;-61
2023/05/11 17:19:40;;;;;;;8.53;4.03;;;;;;;;;;6216893;28;20331;-64
2023/05/11 17:22:41;;;;;;;7.10;3.87;;;;;;;;;;6215815;28;20522;-56
2023/05/11 17:25:41;;;;;;;9.87;4.47;;;;;;;;;;6213923;28;20132;-60
2023/05/11 17:28:42;;;;;;;10.03;4.20;;;;;;;;;;6211585;28;20495;-57
2023/05/11 17:31:45;;;;;;;8.35;3.95;;;;;;;;;;6223061;28;20046;-60
2023/05/11 17:34:45;;;;;;;7.78;4.18;;;;;;;;;;6218789;28;20046;-64
2023/05/11 17:37:46;;;;;;;9.00;4.93;;;;;;;;;;6222332;28;20057;-57
2023/05/11 17:40:46;;;;;;;11.97;5.60;;;;;;;;;;6215271;28;20064;-59
2023/05/11 17:43:47;;;;;;;10.13;4.23;;;;;;;;;;6217320;28;20053;-58
2023/05/11 17:46:48;;;;;;;7.80;4.43;;;;;;;;;;6216887;28;20046;-53
2023/05/11 17:49:49;;;;;;;14.17;4.53;;;;;;;;;;6218562;28;20100;-61
2023/05/11 17:52:49;;;;;;;10.23;4.60;;;;;;;;;;6214973;28;20765;-57
2023/05/11 17:55:51;;;;;;;9.93;4.63;;;;;;;;;;6214361;28;20136;-56
2023/05/11 17:58:52;;;;;;;12.80;4.20;;;;;;;;;;6219558;28;20796;-61
2023/05/11 18:01:52;;;;;;;13.10;4.77;;;;;;;;;;6217709;28;20081;-68
2023/05/11 18:04:53;;;;;;;9.67;4.47;;;;;;;;;;6214549;28;20049;-55